createdAt,value
2022-12-13T00:02:27.039Z,-2.26
2022-12-13T00:05:02.414Z,-2.34
2022-12-13T00:07:35.520Z,-2.35
2022-12-13T00:10:09.282Z,-2.38
2022-12-13T00:12:41.190Z,-2.38
2022-12-13T00:15:14.758Z,-2.41
2022-12-13T00:17:45.703Z,-2.42
2022-12-13T00:20:17.859Z,-2.47
2022-12-13T00:23:10.761Z,-2.49
2022-12-13T00:25:43.397Z,-2.49
2022-12-13T00:28:15.643Z,-2.50
2022-12-13T00:30:47.840Z,-2.50
2022-12-13T00:33:19.987Z,-2.49
2022-12-13T00:35:52.131Z,-2.50
2022-12-13T00:38:24.781Z,-2.52
2022-12-13T00:40:56.979Z,-2.54
2022-12-13T00:43:29.890Z,-2.54
2022-12-13T00:46:04.575Z,-2.54
2022-12-13T00:48:36.991Z,-2.53
2022-12-13T00:51:11.421Z,-2.55
2022-12-13T00:53:46.330Z,-2.58
2022-12-13T00:56:22.048Z,-2.57
2022-12-13T00:58:54.611Z,-2.58
2022-12-13T01:01:28.637Z,-2.60
2022-12-13T01:04:05.985Z,-2.58
2022-12-13T01:06:41.599Z,-2.59
2022-12-13T01:09:19.253Z,-2.60
2022-12-13T01:12:07.801Z,-2.61
2022-12-13T06:06:17.817Z,-2.75
2022-12-13T06:08:47.985Z,-2.49
2022-12-13T06:11:31.232Z,-2.41
2022-12-13T06:14:02.382Z,-2.32
2022-12-13T06:16:32.396Z,-2.34
2022-12-13T06:19:04.533Z,-2.34
2022-12-13T06:21:41.716Z,-2.35
2022-12-13T06:24:17.678Z,-2.55
2022-12-13T06:26:48.291Z,-2.53
2022-12-13T06:29:23.075Z,-2.44
2022-12-13T06:32:02.176Z,-2.56
2022-12-13T06:34:36.393Z,-2.39
2022-12-13T06:37:08.376Z,-2.35
2022-12-13T06:39:38.596Z,-2.41
2022-12-13T06:42:21.674Z,-2.53
2022-12-13T06:44:56.141Z,-2.32
2022-12-13T06:47:31.209Z,-2.51
2022-12-13T06:50:05.653Z,-2.35
2022-12-13T06:52:36.156Z,-2.33
2022-12-13T06:55:07.536Z,-2.33
2022-12-13T06:57:37.747Z,-2.25
2022-12-13T07:00:12.990Z,-2.44
2022-12-13T07:02:43.115Z,-2.36
2022-12-13T07:05:13.427Z,-2.37
2022-12-13T07:07:43.530Z,-2.56
2022-12-13T07:10:22.166Z,-2.63
2022-12-13T07:12:53.676Z,-2.46
2022-12-13T07:15:23.796Z,-2.41
2022-12-13T07:41:45.299Z,-2.29
2022-12-13T07:44:18.589Z,-2.22
2022-12-13T07:46:52.458Z,-2.21
2022-12-13T07:49:27.508Z,-2.30
2022-12-13T07:52:02.288Z,-2.37
2022-12-13T07:54:34.989Z,-2.40
2022-12-13T07:57:11.338Z,-2.37
2022-12-13T07:59:44.001Z,-2.35
2022-12-13T08:02:18.166Z,-2.45
2022-12-13T08:04:54.490Z,-2.42
2022-12-13T08:07:29.038Z,-2.38
2022-12-13T08:10:01.881Z,-2.43
2022-12-13T08:12:34.529Z,-2.38
2022-12-13T08:15:13.776Z,-2.33
2022-12-13T08:17:47.322Z,-2.29
2022-12-13T08:20:23.249Z,-2.22
2022-12-13T08:23:02.198Z,-2.18
2022-12-13T08:25:36.277Z,-2.12
2022-12-13T08:28:09.020Z,-2.00
2022-12-13T08:30:43.235Z,-1.96
2022-12-13T08:33:15.847Z,-1.96
2022-12-13T08:35:49.482Z,-1.86
2022-12-13T08:38:22.526Z,-1.86
2022-12-13T08:41:00.368Z,-1.80
2022-12-13T08:43:32.918Z,-1.69
2022-12-13T08:46:05.780Z,-1.69
2022-12-13T08:48:44.425Z,-1.64
2022-12-13T08:51:24.575Z,-1.57
2022-12-13T08:54:10.452Z,-1.48
2022-12-13T08:56:44.330Z,-1.44
2022-12-13T08:59:19.303Z,-1.42
2022-12-13T09:01:53.934Z,-1.39
2022-12-13T09:04:31.703Z,-1.41
2022-12-13T09:07:06.148Z,-1.41
2022-12-13T09:09:41.991Z,-1.34
2022-12-13T09:12:29.629Z,-1.40
2022-12-13T09:15:04.189Z,-1.37
2022-12-13T09:17:55.456Z,-1.35
2022-12-13T09:20:40.723Z,-1.33
2022-12-13T09:23:23.990Z,-1.23
2022-12-13T09:26:05.327Z,-0.99
2022-12-13T09:28:40.450Z,-0.65
2022-12-13T09:31:16.762Z,-0.31
2022-12-13T09:33:52.101Z,-0.24
2022-12-13T09:37:44.166Z,-0.51
2022-12-13T09:40:25.407Z,-0.58
2022-12-13T09:43:21.642Z,-0.66
2022-12-13T09:45:54.742Z,-0.85
2022-12-13T09:48:35.220Z,-1.02
2022-12-13T09:51:26.256Z,-1.10
2022-12-13T09:54:01.530Z,-1.13
2022-12-13T09:56:34.936Z,-1.09
2022-12-13T09:59:08.479Z,-1.10
2022-12-13T10:01:39.271Z,-1.14
2022-12-13T10:04:17.109Z,-1.19
2022-12-13T10:06:55.727Z,-1.15
2022-12-13T10:09:29.158Z,-0.93
2022-12-13T10:12:02.439Z,-0.82
2022-12-13T10:14:41.496Z,-0.94
2022-12-13T10:17:22.897Z,-0.85
2022-12-13T10:19:55.967Z,-0.95
2022-12-13T10:22:29.021Z,-1.01
2022-12-13T10:25:04.172Z,-1.01
2022-12-13T10:27:40.675Z,-1.09
2022-12-13T10:30:21.794Z,-1.09
2022-12-13T10:33:00.667Z,-1.03
2022-12-13T10:35:36.606Z,-1.11
2022-12-13T10:38:32.487Z,-1.11
2022-12-13T10:41:05.818Z,-1.07
2022-12-13T10:43:39.168Z,-0.78
2022-12-13T10:46:25.415Z,-0.83
2022-12-13T10:48:58.325Z,-0.90
2022-12-13T10:51:39.563Z,-1.08
2022-12-13T10:54:25.727Z,-1.19
2022-12-13T10:57:01.717Z,-1.10
2022-12-13T10:59:40.298Z,-1.11
2022-12-13T11:02:44.482Z,-1.17
2022-12-13T11:05:32.771Z,-1.25
2022-12-13T11:08:23.414Z,-1.36
2022-12-13T11:11:21.098Z,-1.37
2022-12-13T11:13:56.848Z,-1.50
2022-12-13T11:16:33.174Z,-1.65
2022-12-13T11:19:09.621Z,-1.76
2022-12-13T11:21:48.478Z,-1.66
2022-12-13T11:24:26.467Z,-1.55
2022-12-13T11:27:03.981Z,-1.57
2022-12-13T11:29:58.209Z,-1.59
2022-12-13T11:32:35.066Z,-1.63
2022-12-13T11:35:16.609Z,-1.75
2022-12-13T11:37:59.828Z,-1.77
2022-12-13T11:40:34.318Z,-1.79
2022-12-13T11:43:15.538Z,-1.84
2022-12-13T11:45:56.248Z,-1.90
2022-12-13T11:48:35.806Z,-1.86
2022-12-13T11:51:11.619Z,-1.91
2022-12-13T11:53:55.338Z,-1.92
2022-12-13T11:56:30.348Z,-1.94
2022-12-13T11:59:20.608Z,-1.78
2022-12-13T12:02:04.827Z,-1.76
2022-12-13T12:04:46.040Z,-1.78
2022-12-13T12:07:32.704Z,-1.79
2022-12-13T12:10:22.459Z,-1.84
2022-12-13T12:13:03.678Z,-1.86
2022-12-13T12:15:42.776Z,-1.86
2022-12-13T12:18:17.840Z,-1.93
2022-12-13T12:21:03.049Z,-1.95
2022-12-13T12:23:53.028Z,-1.96
2022-12-13T12:26:32.492Z,-1.91
2022-12-13T12:29:32.078Z,-1.85
2022-12-13T12:32:11.787Z,-1.77
2022-12-13T12:34:49.207Z,-1.75
2022-12-13T12:37:30.199Z,-1.56
2022-12-13T12:40:52.276Z,-1.48
2022-12-13T12:43:34.431Z,-1.49
2022-12-13T12:46:28.487Z,-1.49
2022-12-13T12:49:29.646Z,-1.47
2022-12-13T12:52:10.019Z,-1.49
2022-12-13T12:54:52.919Z,-1.48
2022-12-13T12:57:34.870Z,-1.53
2022-12-13T13:00:15.903Z,-1.63
2022-12-13T13:02:57.059Z,-1.66
2022-12-13T13:05:40.703Z,-1.66
2022-12-13T13:08:19.819Z,-1.73
2022-12-13T13:10:54.037Z,-1.76
2022-12-13T13:13:47.138Z,-1.77
2022-12-13T13:16:40.627Z,-1.78
2022-12-13T13:19:45.606Z,-1.91
2022-12-13T13:22:34.414Z,-2.04
2022-12-13T13:25:35.217Z,-2.00
2022-12-13T13:28:20.457Z,-1.98
2022-12-13T13:31:09.416Z,-1.99
2022-12-13T13:33:49.266Z,-2.06
2022-12-13T13:36:48.849Z,-2.09
2022-12-13T13:39:39.514Z,-2.04
2022-12-13T13:42:21.675Z,-2.05
2022-12-13T13:45:19.868Z,-2.01
2022-12-13T13:48:14.960Z,-2.09
2022-12-13T13:51:23.259Z,-2.15
2022-12-13T13:54:25.646Z,-2.20
2022-12-13T13:58:00.326Z,-2.27
2022-12-13T14:00:37.002Z,-2.32
2022-12-13T14:03:56.820Z,-2.35
2022-12-13T14:07:02.296Z,-2.40
2022-12-13T14:09:55.239Z,-2.42
2022-12-13T14:13:09.104Z,-2.57
2022-12-13T14:16:20.783Z,-2.67
2022-12-13T14:19:30.036Z,-2.71
2022-12-13T14:22:20.267Z,-2.72
2022-12-13T14:25:06.963Z,-2.74
2022-12-13T14:27:48.960Z,-2.73
2022-12-13T14:30:28.915Z,-2.81
2022-12-13T14:33:02.498Z,-2.87
2022-12-13T14:35:36.138Z,-2.93
2022-12-13T14:38:08.967Z,-2.96
2022-12-13T14:40:52.467Z,-3.07
2022-12-13T14:43:30.496Z,-3.07
2022-12-13T14:46:04.386Z,-3.06
2022-12-13T14:48:46.810Z,-3.00
2022-12-13T14:51:36.488Z,-3.02
2022-12-13T14:54:25.485Z,-3.17
2022-12-13T14:57:04.591Z,-3.24
2022-12-13T14:59:37.497Z,-3.34
2022-12-13T15:02:16.909Z,-3.36
2022-12-13T15:05:06.800Z,-3.36
2022-12-13T15:07:43.489Z,-3.30
2022-12-13T15:10:27.677Z,-3.29
2022-12-13T15:13:00.919Z,-3.28
2022-12-13T15:15:37.127Z,-3.28
2022-12-13T15:18:21.740Z,-3.29
2022-12-13T15:21:00.809Z,-3.33
2022-12-13T15:23:49.214Z,-3.36
2022-12-13T15:26:36.160Z,-3.35
2022-12-13T15:29:10.981Z,-3.28
2022-12-13T15:31:48.606Z,-3.26
2022-12-13T15:34:38.008Z,-3.30
2022-12-13T15:37:29.235Z,-3.31
2022-12-13T15:40:10.607Z,-3.31
2022-12-13T15:42:49.037Z,-3.33
2022-12-13T15:45:29.191Z,-3.30
2022-12-13T15:48:06.620Z,-3.31
2022-12-13T15:50:45.541Z,-3.30
2022-12-13T15:53:26.828Z,-3.30
2022-12-13T15:56:04.746Z,-3.28
2022-12-13T15:58:41.419Z,-3.28
2022-12-13T16:01:33.237Z,-3.31
2022-12-13T16:04:08.674Z,-3.33
2022-12-13T16:06:52.995Z,-3.34
2022-12-13T16:09:30.298Z,-3.29
2022-12-13T16:12:05.773Z,-3.30
2022-12-13T16:14:49.313Z,-3.31
2022-12-13T16:17:27.406Z,-3.32
2022-12-13T16:20:07.725Z,-3.32
2022-12-13T16:22:42.529Z,-3.30
2022-12-13T16:25:17.942Z,-3.33
2022-12-13T16:27:50.818Z,-3.36
2022-12-13T16:30:29.130Z,-3.36
2022-12-13T16:35:55.297Z,-3.40
2022-12-13T16:38:27.770Z,-3.43
2022-12-13T16:41:08.211Z,-3.43
2022-12-13T16:43:54.238Z,-3.41
2022-12-13T16:47:11.547Z,-3.41
2022-12-13T16:49:26.209Z,-3.43
2022-12-13T16:52:00.315Z,-3.41
2022-12-13T16:54:32.847Z,-3.42
2022-12-13T16:57:06.057Z,-3.45
2022-12-13T16:59:38.688Z,-3.55
2022-12-13T17:02:18.128Z,-3.50
2022-12-13T17:04:50.986Z,-3.53
2022-12-13T17:07:24.019Z,-3.54
2022-12-13T17:09:56.588Z,-3.54
2022-12-13T17:12:29.528Z,-3.52
2022-12-13T17:15:02.171Z,-3.57
2022-12-13T17:17:34.930Z,-3.58
2022-12-13T17:20:09.164Z,-3.61
2022-12-13T17:22:42.128Z,-3.64
2022-12-13T17:25:15.639Z,-3.64
2022-12-13T17:27:48.546Z,-3.62
2022-12-13T17:30:22.278Z,-3.59
2022-12-13T17:32:52.828Z,-3.57
2022-12-13T17:35:27.598Z,-3.63
2022-12-13T17:38:00.128Z,-3.58
2022-12-13T17:40:33.498Z,-3.57
2022-12-13T17:43:06.066Z,-3.57
2022-12-13T17:45:39.417Z,-3.61
2022-12-13T17:48:12.291Z,-3.57
2022-12-13T17:50:45.109Z,-3.57
2022-12-13T17:53:17.970Z,-3.64
2022-12-13T17:55:59.469Z,-3.60
2022-12-13T17:58:33.320Z,-3.62
2022-12-13T18:01:14.678Z,-3.66
2022-12-13T18:03:49.128Z,-3.69
2022-12-13T18:06:21.628Z,-3.77
2022-12-13T18:08:54.519Z,-3.78
2022-12-13T18:11:35.019Z,-3.81
2022-12-13T18:14:09.805Z,-3.79
2022-12-13T18:16:43.398Z,-3.81
2022-12-13T18:19:17.043Z,-3.88
2022-12-13T18:21:50.119Z,-3.88
2022-12-13T18:24:23.009Z,-3.89
2022-12-13T18:26:56.040Z,-3.90
2022-12-13T18:29:28.318Z,-3.91
2022-12-13T18:32:01.419Z,-3.95
2022-12-13T18:34:34.457Z,-3.90
2022-12-13T18:37:06.917Z,-3.86
2022-12-13T18:39:39.758Z,-3.85
2022-12-13T18:42:12.497Z,-3.89
2022-12-13T18:44:54.761Z,-3.88
2022-12-13T18:47:29.248Z,-3.87
2022-12-13T18:50:01.996Z,-3.84
2022-12-13T18:52:35.039Z,-3.86
2022-12-13T18:55:08.758Z,-3.91
2022-12-13T18:57:41.188Z,-3.87
2022-12-13T19:00:16.822Z,-3.86
2022-12-13T19:02:53.697Z,-3.91
2022-12-13T19:05:26.656Z,-3.96
2022-12-13T19:07:59.238Z,-3.99
2022-12-13T19:10:32.160Z,-3.95
2022-12-13T19:13:04.610Z,-3.95
2022-12-13T19:15:40.044Z,-3.97
2022-12-13T19:18:12.760Z,-3.98
2022-12-13T19:20:50.931Z,-4.01
2022-12-13T19:23:24.630Z,-4.02
2022-12-13T19:25:58.942Z,-4.01
2022-12-13T19:28:34.968Z,-4.06
2022-12-13T19:31:09.827Z,-4.10
2022-12-13T19:33:42.557Z,-4.15
2022-12-13T19:36:15.589Z,-4.20
2022-12-13T19:38:48.219Z,-4.20
2022-12-13T19:41:23.438Z,-4.21
2022-12-13T19:43:57.699Z,-4.24
2022-12-13T19:46:31.105Z,-4.27
2022-12-13T19:49:03.678Z,-4.25
2022-12-13T19:51:39.849Z,-4.29
2022-12-13T19:54:12.927Z,-4.31
2022-12-13T19:56:46.467Z,-4.36
2022-12-13T19:59:18.599Z,-4.50
2022-12-13T20:01:51.461Z,-4.58
2022-12-13T20:04:25.357Z,-4.59
2022-12-13T20:06:58.078Z,-4.65
2022-12-13T20:09:30.941Z,-4.69
2022-12-13T20:12:03.846Z,-4.73
2022-12-13T20:14:36.557Z,-4.78
2022-12-13T20:17:09.389Z,-4.85
2022-12-13T20:19:42.050Z,-4.93
2022-12-13T20:22:16.307Z,-5.08
2022-12-13T20:24:48.846Z,-5.21
2022-12-13T20:27:22.159Z,-5.30
2022-12-13T20:29:54.860Z,-5.37
2022-12-13T20:32:29.196Z,-5.47
2022-12-13T20:35:02.128Z,-5.51
2022-12-13T20:37:41.507Z,-5.59
2022-12-13T20:40:16.387Z,-5.74
2022-12-13T20:42:49.289Z,-5.84
2022-12-13T20:45:22.159Z,-5.97
2022-12-13T20:47:54.907Z,-6.08
2022-12-13T20:50:27.580Z,-6.17
2022-12-13T20:53:00.798Z,-6.30
2022-12-13T20:55:36.079Z,-6.35
2022-12-13T20:58:08.936Z,-6.39
2022-12-13T21:00:42.056Z,-6.44
2022-12-13T21:03:14.858Z,-6.52
2022-12-13T21:05:48.419Z,-6.70
2022-12-13T21:08:38.701Z,-6.79
2022-12-13T21:11:27.612Z,-6.95
2022-12-13T21:14:09.090Z,-7.09
2022-12-13T21:16:48.173Z,-7.39
2022-12-13T21:19:27.799Z,-7.39
2022-12-13T21:22:07.620Z,-7.39
2022-12-13T21:24:42.500Z,-7.46
2022-12-13T21:27:15.837Z,-7.50
2022-12-13T21:29:49.419Z,-7.59
2022-12-13T21:32:22.088Z,-7.65
2022-12-13T21:34:56.779Z,-7.70
2022-12-13T21:37:31.229Z,-7.71
2022-12-13T21:40:03.950Z,-7.72
2022-12-13T21:42:40.860Z,-7.77
2022-12-13T21:45:14.908Z,-7.79
2022-12-13T21:47:51.811Z,-7.84
2022-12-13T21:50:25.640Z,-7.86
2022-12-13T21:52:58.060Z,-7.85
2022-12-13T21:55:39.644Z,-7.86
2022-12-13T21:58:30.948Z,-7.87
2022-12-13T22:01:04.309Z,-7.92
2022-12-13T22:03:38.080Z,-8.00
2022-12-13T22:06:11.257Z,-8.05
2022-12-13T22:08:44.010Z,-8.16
2022-12-13T22:11:21.718Z,-8.11
2022-12-13T22:13:57.409Z,-8.20
2022-12-13T22:16:29.203Z,-8.33
2022-12-13T22:19:01.937Z,-8.51
2022-12-13T22:21:34.941Z,-8.61
2022-12-13T22:24:13.468Z,-8.59
2022-12-13T22:26:46.889Z,-8.61
2022-12-13T22:29:22.718Z,-8.66
2022-12-13T22:31:55.333Z,-8.65
2022-12-13T22:34:27.980Z,-8.64
2022-12-13T22:37:01.376Z,-8.70
2022-12-13T22:39:34.035Z,-8.86
2022-12-13T22:42:07.055Z,-9.04
2022-12-13T22:44:40.138Z,-9.09
2022-12-13T22:47:12.816Z,-9.19
2022-12-13T22:49:45.247Z,-9.29
2022-12-13T22:52:21.808Z,-9.27
2022-12-13T22:54:54.227Z,-9.22
2022-12-13T22:57:26.757Z,-9.26
2022-12-13T22:59:59.352Z,-9.32
2022-12-13T23:02:31.963Z,-9.42
2022-12-13T23:05:05.458Z,-9.33
2022-12-13T23:07:39.386Z,-9.31
2022-12-13T23:10:32.858Z,-9.36
2022-12-13T23:13:05.577Z,-9.45
2022-12-13T23:15:49.285Z,-9.47
2022-12-13T23:18:20.398Z,-9.63
2022-12-13T23:20:53.773Z,-9.70
2022-12-13T23:23:26.418Z,-9.73
2022-12-13T23:25:59.103Z,-9.77
2022-12-13T23:28:31.726Z,-9.81
2022-12-13T23:31:05.636Z,-9.92
2022-12-13T23:33:39.397Z,-9.97
2022-12-13T23:36:12.057Z,-10.03
2022-12-13T23:38:45.597Z,-10.06
2022-12-13T23:41:23.313Z,-9.99
2022-12-13T23:43:58.598Z,-10.01
2022-12-13T23:46:33.643Z,-10.01
2022-12-13T23:49:09.079Z,-10.08
2022-12-13T23:51:42.297Z,-10.13
2022-12-13T23:54:19.596Z,-10.11
2022-12-13T23:56:52.017Z,-10.14
2022-12-13T23:59:26.279Z,-10.15
